sensor_id;sensor_type;location;lat;lon;timestamp;temperature;humidity
15257;DHT22;7731;50.720;6.912;2023-03-01T00:00:46;0.60;1.00
15257;DHT22;7731;50.720;6.912;2023-03-01T00:03:19;0.50;1.00
15257;DHT22;7731;50.720;6.912;2023-03-01T00:05:49;0.50;1.00
15257;DHT22;7731;50.720;6.912;2023-03-01T00:08:19;0.60;99.90
15257;DHT22;7731;50.720;6.912;2023-03-01T00:11:01;0.60;99.90
15257;DHT22;7731;50.720;6.912;2023-03-01T00:13:33;0.70;99.90
15257;DHT22;7731;50.720;6.912;2023-03-01T00:16:05;0.80;99.90
15257;DHT22;7731;50.720;6.912;2023-03-01T00:18:40;0.80;1.00
15257;DHT22;7731;50.720;6.912;2023-03-01T00:21:10;0.80;99.90
15257;DHT22;7731;50.720;6.912;2023-03-01T00:23:41;0.80;99.90
15257;DHT22;7731;50.720;6.912;2023-03-01T00:26:13;0.60;99.90
15257;DHT22;7731;50.720;6.912;2023-03-01T00:28:44;0.50;99.90
15257;DHT22;7731;50.720;6.912;2023-03-01T00:31:16;0.40;1.00
15257;DHT22;7731;50.720;6.912;2023-03-01T00:33:52;0.40;1.00
15257;DHT22;7731;50.720;6.912;2023-03-01T00:36:27;0.60;99.90
15257;DHT22;7731;50.720;6.912;2023-03-01T00:38:59;0.70;99.90
15257;DHT22;7731;50.720;6.912;2023-03-01T00:41:30;0.70;99.90
15257;DHT22;7731;50.720;6.912;2023-03-01T00:44:04;0.70;1.00
15257;DHT22;7731;50.720;6.912;2023-03-01T00:46:34;0.70;1.00
15257;DHT22;7731;50.720;6.912;2023-03-01T00:49:07;0.60;1.00
15257;DHT22;7731;50.720;6.912;2023-03-01T00:51:40;0.60;1.00
15257;DHT22;7731;50.720;6.912;2023-03-01T00:54:10;0.40;1.00
15257;DHT22;7731;50.720;6.912;2023-03-01T00:56:40;0.40;1.00
15257;DHT22;7731;50.720;6.912;2023-03-01T00:59:11;0.40;1.00
15257;DHT22;7731;50.720;6.912;2023-03-01T01:01:41;0.50;1.00
15257;DHT22;7731;50.720;6.912;2023-03-01T01:04:14;0.50;1.00
15257;DHT22;7731;50.720;6.912;2023-03-01T01:06:46;0.40;1.00
15257;DHT22;7731;50.720;6.912;2023-03-01T01:09:17;0.40;1.00
15257;DHT22;7731;50.720;6.912;2023-03-01T01:11:49;0.50;1.00
15257;DHT22;7731;50.720;6.912;2023-03-01T01:14:22;0.40;1.00
15257;DHT22;7731;50.720;6.912;2023-03-01T01:16:52;0.40;1.00
15257;DHT22;7731;50.720;6.912;2023-03-01T01:19:26;0.40;1.00
15257;DHT22;7731;50.720;6.912;2023-03-01T01:21:56;0.30;1.00
15257;DHT22;7731;50.720;6.912;2023-03-01T01:24:26;0.30;1.00
15257;DHT22;7731;50.720;6.912;2023-03-01T01:26:56;0.30;1.00
15257;DHT22;7731;50.720;6.912;2023-03-01T01:29:27;0.20;1.00
15257;DHT22;7731;50.720;6.912;2023-03-01T01:31:57;0.10;1.00
15257;DHT22;7731;50.720;6.912;2023-03-01T01:34:32;0.10;1.00
15257;DHT22;7731;50.720;6.912;2023-03-01T01:37:05;0.10;1.00
15257;DHT22;7731;50.720;6.912;2023-03-01T01:39:35;0.20;1.00
15257;DHT22;7731;50.720;6.912;2023-03-01T01:42:12;0.30;1.00
15257;DHT22;7731;50.720;6.912;2023-03-01T01:44:46;0.30;1.00
15257;DHT22;7731;50.720;6.912;2023-03-01T01:47:20;0.30;1.00
15257;DHT22;7731;50.720;6.912;2023-03-01T01:49:56;0.20;1.00
15257;DHT22;7731;50.720;6.912;2023-03-01T01:52:31;0.00;1.00
15257;DHT22;7731;50.720;6.912;2023-03-01T01:55:06;0.10;1.00
15257;DHT22;7731;50.720;6.912;2023-03-01T01:57:44;0.10;1.00
15257;DHT22;7731;50.720;6.912;2023-03-01T02:00:18;-0.10;1.00
15257;DHT22;7731;50.720;6.912;2023-03-01T02:02:54;-0.10;1.00
15257;DHT22;7731;50.720;6.912;2023-03-01T02:05:34;-0.10;1.00
15257;DHT22;7731;50.720;6.912;2023-03-01T02:08:12;-0.20;1.00
15257;DHT22;7731;50.720;6.912;2023-03-01T02:10:46;-0.10;1.00
15257;DHT22;7731;50.720;6.912;2023-03-01T02:13:21;-0.10;1.00
15257;DHT22;7731;50.720;6.912;2023-03-01T02:15:52;0.00;1.00
15257;DHT22;7731;50.720;6.912;2023-03-01T02:18:23;0.00;1.00
15257;DHT22;7731;50.720;6.912;2023-03-01T02:21:05;-0.20;1.00
15257;DHT22;7731;50.720;6.912;2023-03-01T02:23:47;-0.40;1.00
15257;DHT22;7731;50.720;6.912;2023-03-01T02:26:25;-0.70;5.40
15257;DHT22;7731;50.720;6.912;2023-03-01T02:29:06;-1.00;51.50
15257;DHT22;7731;50.720;6.912;2023-03-01T02:31:36;-1.30;99.90
15257;DHT22;7731;50.720;6.912;2023-03-01T02:34:15;-1.40;99.90
15257;DHT22;7731;50.720;6.912;2023-03-01T02:36:49;-1.50;99.90
15257;DHT22;7731;50.720;6.912;2023-03-01T02:39:26;-1.60;99.90
15257;DHT22;7731;50.720;6.912;2023-03-01T02:42:01;-1.60;99.90
15257;DHT22;7731;50.720;6.912;2023-03-01T02:44:36;-1.60;99.90
15257;DHT22;7731;50.720;6.912;2023-03-01T02:47:06;-1.70;99.90
15257;DHT22;7731;50.720;6.912;2023-03-01T02:49:37;-1.80;99.90
15257;DHT22;7731;50.720;6.912;2023-03-01T02:52:17;-1.90;99.90
15257;DHT22;7731;50.720;6.912;2023-03-01T02:55:01;-1.90;99.90
15257;DHT22;7731;50.720;6.912;2023-03-01T02:57:38;-2.00;99.90
15257;DHT22;7731;50.720;6.912;2023-03-01T03:00:19;-2.00;99.90
15257;DHT22;7731;50.720;6.912;2023-03-01T03:02:55;-2.00;99.90
15257;DHT22;7731;50.720;6.912;2023-03-01T03:05:30;-2.10;99.90
15257;DHT22;7731;50.720;6.912;2023-03-01T03:08:02;-2.20;99.90
15257;DHT22;7731;50.720;6.912;2023-03-01T03:10:39;-2.20;99.90
15257;DHT22;7731;50.720;6.912;2023-03-01T03:13:12;-2.20;99.90
15257;DHT22;7731;50.720;6.912;2023-03-01T03:15:46;-2.20;99.90
15257;DHT22;7731;50.720;6.912;2023-03-01T03:18:17;-2.20;99.90
15257;DHT22;7731;50.720;6.912;2023-03-01T03:20:47;-2.30;99.90
15257;DHT22;7731;50.720;6.912;2023-03-01T03:23:21;-2.30;99.90
15257;DHT22;7731;50.720;6.912;2023-03-01T03:25:51;-2.20;99.90
15257;DHT22;7731;50.720;6.912;2023-03-01T03:28:22;-2.20;99.90
15257;DHT22;7731;50.720;6.912;2023-03-01T03:30:54;-2.30;99.90
15257;DHT22;7731;50.720;6.912;2023-03-01T03:33:26;-2.30;99.90
15257;DHT22;7731;50.720;6.912;2023-03-01T03:35:56;-2.40;99.90
15257;DHT22;7731;50.720;6.912;2023-03-01T03:38:26;-2.40;99.90
15257;DHT22;7731;50.720;6.912;2023-03-01T03:41:01;-2.40;99.90
15257;DHT22;7731;50.720;6.912;2023-03-01T03:43:36;-2.40;99.90
15257;DHT22;7731;50.720;6.912;2023-03-01T03:46:12;-2.30;99.90
15257;DHT22;7731;50.720;6.912;2023-03-01T03:48:44;-2.30;99.90
15257;DHT22;7731;50.720;6.912;2023-03-01T03:51:17;-2.40;99.90
15257;DHT22;7731;50.720;6.912;2023-03-01T03:53:49;-2.40;99.90
15257;DHT22;7731;50.720;6.912;2023-03-01T03:56:19;-2.40;99.90
15257;DHT22;7731;50.720;6.912;2023-03-01T03:58:54;-2.30;99.90
15257;DHT22;7731;50.720;6.912;2023-03-01T04:01:27;-2.30;99.90
15257;DHT22;7731;50.720;6.912;2023-03-01T04:04:07;-2.30;99.90
15257;DHT22;7731;50.720;6.912;2023-03-01T04:06:40;-2.40;99.90
15257;DHT22;7731;50.720;6.912;2023-03-01T04:09:10;-2.60;99.90
15257;DHT22;7731;50.720;6.912;2023-03-01T04:11:40;-2.70;99.90
15257;DHT22;7731;50.720;6.912;2023-03-01T04:14:10;-2.60;99.90
15257;DHT22;7731;50.720;6.912;2023-03-01T04:16:43;-2.70;99.90
15257;DHT22;7731;50.720;6.912;2023-03-01T04:19:14;-2.70;99.90
15257;DHT22;7731;50.720;6.912;2023-03-01T04:21:44;-2.70;99.90
15257;DHT22;7731;50.720;6.912;2023-03-01T04:24:14;-2.70;99.90
15257;DHT22;7731;50.720;6.912;2023-03-01T04:26:45;-2.70;99.90
15257;DHT22;7731;50.720;6.912;2023-03-01T04:29:15;-2.70;99.90
15257;DHT22;7731;50.720;6.912;2023-03-01T04:31:48;-2.70;99.90
15257;DHT22;7731;50.720;6.912;2023-03-01T04:34:19;-2.60;99.90
15257;DHT22;7731;50.720;6.912;2023-03-01T04:36:49;-2.60;99.90
15257;DHT22;7731;50.720;6.912;2023-03-01T04:39:19;-2.70;99.90
15257;DHT22;7731;50.720;6.912;2023-03-01T04:41:50;-2.70;99.90
15257;DHT22;7731;50.720;6.912;2023-03-01T04:44:20;-2.80;99.90
15257;DHT22;7731;50.720;6.912;2023-03-01T04:46:53;-2.90;99.90
15257;DHT22;7731;50.720;6.912;2023-03-01T04:49:25;-2.90;99.90
15257;DHT22;7731;50.720;6.912;2023-03-01T04:51:55;-3.00;99.90
15257;DHT22;7731;50.720;6.912;2023-03-01T04:54:29;-3.00;99.90
15257;DHT22;7731;50.720;6.912;2023-03-01T04:56:59;-3.00;99.90
15257;DHT22;7731;50.720;6.912;2023-03-01T04:59:30;-3.00;99.90
15257;DHT22;7731;50.720;6.912;2023-03-01T05:02:03;-3.00;99.90
15257;DHT22;7731;50.720;6.912;2023-03-01T05:04:33;-2.90;99.90
15257;DHT22;7731;50.720;6.912;2023-03-01T05:07:03;-3.00;99.90
15257;DHT22;7731;50.720;6.912;2023-03-01T05:09:33;-3.00;99.90
15257;DHT22;7731;50.720;6.912;2023-03-01T05:12:05;-3.00;99.90
15257;DHT22;7731;50.720;6.912;2023-03-01T05:14:37;-3.10;99.90
15257;DHT22;7731;50.720;6.912;2023-03-01T05:17:10;-3.10;99.90
15257;DHT22;7731;50.720;6.912;2023-03-01T05:19:40;-3.10;99.90
15257;DHT22;7731;50.720;6.912;2023-03-01T05:22:10;-3.10;99.90
15257;DHT22;7731;50.720;6.912;2023-03-01T05:24:40;-3.10;99.90
15257;DHT22;7731;50.720;6.912;2023-03-01T05:27:11;-3.10;99.90
15257;DHT22;7731;50.720;6.912;2023-03-01T05:29:41;-3.20;99.90
15257;DHT22;7731;50.720;6.912;2023-03-01T05:32:14;-3.20;99.90
15257;DHT22;7731;50.720;6.912;2023-03-01T05:34:45;-3.20;99.90
15257;DHT22;7731;50.720;6.912;2023-03-01T05:37:15;-3.20;99.90
15257;DHT22;7731;50.720;6.912;2023-03-01T05:39:46;-3.20;99.90
15257;DHT22;7731;50.720;6.912;2023-03-01T05:42:17;-3.20;99.90
15257;DHT22;7731;50.720;6.912;2023-03-01T05:44:49;-3.30;99.90
15257;DHT22;7731;50.720;6.912;2023-03-01T05:47:24;-3.30;99.90
15257;DHT22;7731;50.720;6.912;2023-03-01T05:49:58;-3.20;99.90
15257;DHT22;7731;50.720;6.912;2023-03-01T05:52:29;-3.10;99.90
15257;DHT22;7731;50.720;6.912;2023-03-01T05:54:59;-3.20;99.90
15257;DHT22;7731;50.720;6.912;2023-03-01T05:57:29;-3.30;99.90
15257;DHT22;7731;50.720;6.912;2023-03-01T05:59:59;-3.20;99.90
15257;DHT22;7731;50.720;6.912;2023-03-01T06:02:32;-3.20;99.90
15257;DHT22;7731;50.720;6.912;2023-03-01T06:05:03;-3.20;99.90
15257;DHT22;7731;50.720;6.912;2023-03-01T06:07:34;-3.20;99.90
15257;DHT22;7731;50.720;6.912;2023-03-01T06:10:06;-3.30;99.90
15257;DHT22;7731;50.720;6.912;2023-03-01T06:12:39;-3.30;99.90
15257;DHT22;7731;50.720;6.912;2023-03-01T06:15:14;-3.30;99.90
15257;DHT22;7731;50.720;6.912;2023-03-01T06:17:51;-3.30;99.90
15257;DHT22;7731;50.720;6.912;2023-03-01T06:20:28;-3.30;99.90
15257;DHT22;7731;50.720;6.912;2023-03-01T06:22:58;-3.20;99.90
15257;DHT22;7731;50.720;6.912;2023-03-01T06:25:29;-3.30;99.90
15257;DHT22;7731;50.720;6.912;2023-03-01T06:27:59;-3.40;99.90
15257;DHT22;7731;50.720;6.912;2023-03-01T06:30:31;-3.30;99.90
15257;DHT22;7731;50.720;6.912;2023-03-01T06:33:05;-3.30;99.90
15257;DHT22;7731;50.720;6.912;2023-03-01T06:35:36;-3.30;99.90
15257;DHT22;7731;50.720;6.912;2023-03-01T06:38:07;-3.30;99.90
15257;DHT22;7731;50.720;6.912;2023-03-01T06:40:39;-3.20;99.90
15257;DHT22;7731;50.720;6.912;2023-03-01T06:43:10;-3.30;99.90
15257;DHT22;7731;50.720;6.912;2023-03-01T06:45:41;-3.30;99.90
15257;DHT22;7731;50.720;6.912;2023-03-01T06:48:15;-3.20;99.90
15257;DHT22;7731;50.720;6.912;2023-03-01T06:50:45;-3.30;99.90
15257;DHT22;7731;50.720;6.912;2023-03-01T06:53:20;-3.30;99.90
15257;DHT22;7731;50.720;6.912;2023-03-01T06:55:54;-3.20;99.90
15257;DHT22;7731;50.720;6.912;2023-03-01T06:58:26;-3.30;99.90
15257;DHT22;7731;50.720;6.912;2023-03-01T07:00:56;-3.30;99.90
15257;DHT22;7731;50.720;6.912;2023-03-01T07:03:29;-3.30;99.90
15257;DHT22;7731;50.720;6.912;2023-03-01T07:05:59;-3.20;99.90
15257;DHT22;7731;50.720;6.912;2023-03-01T07:08:29;-3.10;99.90
15257;DHT22;7731;50.720;6.912;2023-03-01T07:10:59;-3.10;99.90
15257;DHT22;7731;50.720;6.912;2023-03-01T07:13:34;-3.00;99.90
15257;DHT22;7731;50.720;6.912;2023-03-01T07:16:04;-3.10;99.90
15257;DHT22;7731;50.720;6.912;2023-03-01T07:18:41;-3.10;99.90
15257;DHT22;7731;50.720;6.912;2023-03-01T07:21:13;-3.00;99.90
15257;DHT22;7731;50.720;6.912;2023-03-01T07:23:44;-3.00;99.90
15257;DHT22;7731;50.720;6.912;2023-03-01T07:26:17;-2.90;99.90
15257;DHT22;7731;50.720;6.912;2023-03-01T07:28:47;-2.80;99.90
15257;DHT22;7731;50.720;6.912;2023-03-01T07:31:19;-2.90;99.90
15257;DHT22;7731;50.720;6.912;2023-03-01T07:33:52;-2.70;99.90
15257;DHT22;7731;50.720;6.912;2023-03-01T07:36:23;-2.60;99.90
15257;DHT22;7731;50.720;6.912;2023-03-01T07:38:54;-2.50;99.90
15257;DHT22;7731;50.720;6.912;2023-03-01T07:41:24;-2.50;99.90
15257;DHT22;7731;50.720;6.912;2023-03-01T07:43:55;-2.40;99.90
15257;DHT22;7731;50.720;6.912;2023-03-01T07:46:25;-2.30;99.90
15257;DHT22;7731;50.720;6.912;2023-03-01T07:48:59;-2.20;99.90
15257;DHT22;7731;50.720;6.912;2023-03-01T07:51:33;-1.90;99.90
15257;DHT22;7731;50.720;6.912;2023-03-01T07:54:03;-1.60;99.90
15257;DHT22;7731;50.720;6.912;2023-03-01T07:56:34;-1.40;99.90
15257;DHT22;7731;50.720;6.912;2023-03-01T07:59:04;-0.60;92.50
15257;DHT22;7731;50.720;6.912;2023-03-01T08:01:34;1.40;11.10
15257;DHT22;7731;50.720;6.912;2023-03-01T08:04:07;4.00;1.00
15257;DHT22;7731;50.720;6.912;2023-03-01T08:06:38;5.80;1.00
15257;DHT22;7731;50.720;6.912;2023-03-01T08:09:08;5.10;1.00
15257;DHT22;7731;50.720;6.912;2023-03-01T08:11:38;4.80;1.00
15257;DHT22;7731;50.720;6.912;2023-03-01T08:14:09;4.70;99.90
15257;DHT22;7731;50.720;6.912;2023-03-01T08:16:39;5.20;1.00
15257;DHT22;7731;50.720;6.912;2023-03-01T08:19:12;5.80;99.90
15257;DHT22;7731;50.720;6.912;2023-03-01T08:21:43;5.70;99.90
15257;DHT22;7731;50.720;6.912;2023-03-01T08:24:13;5.50;99.90
15257;DHT22;7731;50.720;6.912;2023-03-01T08:26:43;6.20;1.00
15257;DHT22;7731;50.720;6.912;2023-03-01T08:29:13;5.70;99.90
15257;DHT22;7731;50.720;6.912;2023-03-01T08:31:43;4.50;99.90
15257;DHT22;7731;50.720;6.912;2023-03-01T08:34:17;5.00;1.00
15257;DHT22;7731;50.720;6.912;2023-03-01T08:36:48;4.40;99.90
15257;DHT22;7731;50.720;6.912;2023-03-01T08:39:20;4.30;1.00
15257;DHT22;7731;50.720;6.912;2023-03-01T08:41:50;3.80;99.90
15257;DHT22;7731;50.720;6.912;2023-03-01T08:44:20;3.20;1.00
15257;DHT22;7731;50.720;6.912;2023-03-01T08:46:51;2.70;1.00
15257;DHT22;7731;50.720;6.912;2023-03-01T08:49:25;2.60;99.90
15257;DHT22;7731;50.720;6.912;2023-03-01T08:51:55;2.60;99.90
15257;DHT22;7731;50.720;6.912;2023-03-01T08:54:26;2.70;99.90
15257;DHT22;7731;50.720;6.912;2023-03-01T08:56:56;3.20;1.00
15257;DHT22;7731;50.720;6.912;2023-03-01T08:59:26;4.30;59.60
15257;DHT22;7731;50.720;6.912;2023-03-01T09:01:57;4.20;1.00
15257;DHT22;7731;50.720;6.912;2023-03-01T09:04:30;4.40;99.90
15257;DHT22;7731;50.720;6.912;2023-03-01T09:07:00;4.10;1.00
15257;DHT22;7731;50.720;6.912;2023-03-01T09:09:31;4.80;99.90
15257;DHT22;7731;50.720;6.912;2023-03-01T09:12:01;5.50;1.00
15257;DHT22;7731;50.720;6.912;2023-03-01T09:14:32;5.50;1.00
15257;DHT22;7731;50.720;6.912;2023-03-01T09:17:04;5.10;1.00
15257;DHT22;7731;50.720;6.912;2023-03-01T09:19:37;4.70;99.90
15257;DHT22;7731;50.720;6.912;2023-03-01T09:22:07;4.50;99.90
15257;DHT22;7731;50.720;6.912;2023-03-01T09:24:37;4.70;1.00
15257;DHT22;7731;50.720;6.912;2023-03-01T09:27:07;4.70;1.00
15257;DHT22;7731;50.720;6.912;2023-03-01T09:29:39;5.90;1.00
15257;DHT22;7731;50.720;6.912;2023-03-01T09:32:09;6.70;99.90
15257;DHT22;7731;50.720;6.912;2023-03-01T09:34:42;6.90;1.00
15257;DHT22;7731;50.720;6.912;2023-03-01T09:37:25;8.90;99.90
15257;DHT22;7731;50.720;6.912;2023-03-01T09:39:56;10.20;99.90
15257;DHT22;7731;50.720;6.912;2023-03-01T09:42:29;11.90;44.80
15257;DHT22;7731;50.720;6.912;2023-03-01T09:45:04;13.80;1.00
15257;DHT22;7731;50.720;6.912;2023-03-01T09:47:41;13.70;1.00
15257;DHT22;7731;50.720;6.912;2023-03-01T09:50:16;14.40;1.00
15257;DHT22;7731;50.720;6.912;2023-03-01T09:52:58;14.30;1.00
15257;DHT22;7731;50.720;6.912;2023-03-01T09:55:37;14.30;1.00
15257;DHT22;7731;50.720;6.912;2023-03-01T09:58:30;15.20;1.00
15257;DHT22;7731;50.720;6.912;2023-03-01T10:01:27;13.90;1.00
15257;DHT22;7731;50.720;6.912;2023-03-01T10:04:21;14.80;1.00
15257;DHT22;7731;50.720;6.912;2023-03-01T10:07:30;15.30;1.00
15257;DHT22;7731;50.720;6.912;2023-03-01T10:10:19;15.00;1.00
15257;DHT22;7731;50.720;6.912;2023-03-01T10:13:00;14.40;1.00
15257;DHT22;7731;50.720;6.912;2023-03-01T10:15:45;14.70;1.00
15257;DHT22;7731;50.720;6.912;2023-03-01T10:18:24;13.80;1.00
15257;DHT22;7731;50.720;6.912;2023-03-01T10:20:58;14.30;1.00
15257;DHT22;7731;50.720;6.912;2023-03-01T10:23:34;14.80;1.00
15257;DHT22;7731;50.720;6.912;2023-03-01T10:26:15;14.50;1.00
15257;DHT22;7731;50.720;6.912;2023-03-01T10:29:06;15.20;1.00
15257;DHT22;7731;50.720;6.912;2023-03-01T10:31:41;14.90;1.00
15257;DHT22;7731;50.720;6.912;2023-03-01T10:34:15;14.80;1.00
15257;DHT22;7731;50.720;6.912;2023-03-01T10:36:49;15.00;1.00
15257;DHT22;7731;50.720;6.912;2023-03-01T10:39:26;15.40;1.00
15257;DHT22;7731;50.720;6.912;2023-03-01T10:42:00;15.90;1.00
15257;DHT22;7731;50.720;6.912;2023-03-01T10:44:38;14.30;1.00
15257;DHT22;7731;50.720;6.912;2023-03-01T10:47:17;14.10;1.00
15257;DHT22;7731;50.720;6.912;2023-03-01T10:50:01;14.00;1.00
15257;DHT22;7731;50.720;6.912;2023-03-01T10:52:34;15.00;1.00
15257;DHT22;7731;50.720;6.912;2023-03-01T10:55:26;15.00;1.00
15257;DHT22;7731;50.720;6.912;2023-03-01T10:58:15;14.10;1.00
15257;DHT22;7731;50.720;6.912;2023-03-01T11:00:53;15.00;1.00
15257;DHT22;7731;50.720;6.912;2023-03-01T11:03:28;15.10;1.00
15257;DHT22;7731;50.720;6.912;2023-03-01T11:06:03;14.40;1.00
15257;DHT22;7731;50.720;6.912;2023-03-01T11:08:49;13.60;1.00
15257;DHT22;7731;50.720;6.912;2023-03-01T11:11:30;14.80;1.00
15257;DHT22;7731;50.720;6.912;2023-03-01T11:14:07;15.30;1.00
15257;DHT22;7731;50.720;6.912;2023-03-01T11:17:01;15.50;1.00
15257;DHT22;7731;50.720;6.912;2023-03-01T11:19:33;14.70;1.00
15257;DHT22;7731;50.720;6.912;2023-03-01T11:22:05;14.50;1.00
15257;DHT22;7731;50.720;6.912;2023-03-01T11:24:43;14.40;1.00
15257;DHT22;7731;50.720;6.912;2023-03-01T11:27:39;14.90;1.00
15257;DHT22;7731;50.720;6.912;2023-03-01T11:30:18;14.00;1.00
15257;DHT22;7731;50.720;6.912;2023-03-01T11:33:04;14.70;1.00
15257;DHT22;7731;50.720;6.912;2023-03-01T11:35:45;15.50;1.00
15257;DHT22;7731;50.720;6.912;2023-03-01T11:38:26;14.80;1.00
15257;DHT22;7731;50.720;6.912;2023-03-01T11:41:04;15.10;1.00
15257;DHT22;7731;50.720;6.912;2023-03-01T11:43:47;14.10;1.00
15257;DHT22;7731;50.720;6.912;2023-03-01T11:46:50;13.40;1.00
15257;DHT22;7731;50.720;6.912;2023-03-01T11:49:57;13.80;1.00
15257;DHT22;7731;50.720;6.912;2023-03-01T11:53:16;13.60;1.00
15257;DHT22;7731;50.720;6.912;2023-03-01T11:56:14;13.50;1.00
15257;DHT22;7731;50.720;6.912;2023-03-01T11:59:06;13.30;1.00
15257;DHT22;7731;50.720;6.912;2023-03-01T12:02:00;13.40;1.00
15257;DHT22;7731;50.720;6.912;2023-03-01T12:07:59;12.30;1.00
15257;DHT22;7731;50.720;6.912;2023-03-01T12:10:46;11.50;1.00
15257;DHT22;7731;50.720;6.912;2023-03-01T12:13:48;10.70;1.00
15257;DHT22;7731;50.720;6.912;2023-03-01T12:16:40;10.00;1.00
15257;DHT22;7731;50.720;6.912;2023-03-01T12:19:37;9.80;1.00
15257;DHT22;7731;50.720;6.912;2023-03-01T12:22:33;9.60;47.60
15257;DHT22;7731;50.720;6.912;2023-03-01T12:25:25;8.90;99.90
15257;DHT22;7731;50.720;6.912;2023-03-01T12:28:13;8.50;99.90
15257;DHT22;7731;50.720;6.912;2023-03-01T12:31:26;8.60;99.90
15257;DHT22;7731;50.720;6.912;2023-03-01T12:34:24;8.50;99.90
15257;DHT22;7731;50.720;6.912;2023-03-01T12:37:25;8.70;99.90
15257;DHT22;7731;50.720;6.912;2023-03-01T12:40:38;8.60;99.90
15257;DHT22;7731;50.720;6.912;2023-03-01T12:43:38;8.90;99.90
15257;DHT22;7731;50.720;6.912;2023-03-01T12:46:32;9.10;99.90
15257;DHT22;7731;50.720;6.912;2023-03-01T12:49:24;9.10;99.90
15257;DHT22;7731;50.720;6.912;2023-03-01T12:52:02;8.80;99.90
15257;DHT22;7731;50.720;6.912;2023-03-01T12:54:43;8.80;99.90
15257;DHT22;7731;50.720;6.912;2023-03-01T12:57:20;8.80;99.90
15257;DHT22;7731;50.720;6.912;2023-03-01T13:00:17;8.90;99.90
15257;DHT22;7731;50.720;6.912;2023-03-01T13:03:14;8.70;99.90
15257;DHT22;7731;50.720;6.912;2023-03-01T13:06:06;8.90;99.90
15257;DHT22;7731;50.720;6.912;2023-03-01T13:08:48;9.20;99.90
15257;DHT22;7731;50.720;6.912;2023-03-01T13:11:24;9.30;99.90
15257;DHT22;7731;50.720;6.912;2023-03-01T13:17:40;9.10;99.90
15257;DHT22;7731;50.720;6.912;2023-03-01T13:20:19;9.10;99.90
15257;DHT22;7731;50.720;6.912;2023-03-01T13:23:06;9.10;99.90
15257;DHT22;7731;50.720;6.912;2023-03-01T13:28:54;9.20;99.90
15257;DHT22;7731;50.720;6.912;2023-03-01T13:34:49;9.30;91.10
15257;DHT22;7731;50.720;6.912;2023-03-01T13:37:36;9.50;91.90
15257;DHT22;7731;50.720;6.912;2023-03-01T13:43:37;9.30;80.50
15257;DHT22;7731;50.720;6.912;2023-03-01T13:46:14;9.20;99.90
15257;DHT22;7731;50.720;6.912;2023-03-01T13:48:53;9.10;85.10
15257;DHT22;7731;50.720;6.912;2023-03-01T13:51:27;9.00;96.30
15257;DHT22;7731;50.720;6.912;2023-03-01T13:53:58;9.10;99.90
15257;DHT22;7731;50.720;6.912;2023-03-01T13:56:35;9.10;99.90
15257;DHT22;7731;50.720;6.912;2023-03-01T13:59:14;9.00;99.90
15257;DHT22;7731;50.720;6.912;2023-03-01T14:01:52;9.10;99.90
15257;DHT22;7731;50.720;6.912;2023-03-01T14:04:28;9.20;88.40
15257;DHT22;7731;50.720;6.912;2023-03-01T14:07:17;9.20;99.90
15257;DHT22;7731;50.720;6.912;2023-03-01T14:09:54;9.20;99.90
15257;DHT22;7731;50.720;6.912;2023-03-01T14:12:41;9.20;99.90
15257;DHT22;7731;50.720;6.912;2023-03-01T14:15:21;9.20;99.90
15257;DHT22;7731;50.720;6.912;2023-03-01T14:18:01;9.40;95.50
15257;DHT22;7731;50.720;6.912;2023-03-01T14:20:39;9.50;95.60
15257;DHT22;7731;50.720;6.912;2023-03-01T14:23:19;9.40;86.00
15257;DHT22;7731;50.720;6.912;2023-03-01T14:25:55;9.30;81.60
15257;DHT22;7731;50.720;6.912;2023-03-01T14:28:31;9.20;90.40
15257;DHT22;7731;50.720;6.912;2023-03-01T14:31:31;9.10;89.20
15257;DHT22;7731;50.720;6.912;2023-03-01T14:34:21;9.30;92.30
15257;DHT22;7731;50.720;6.912;2023-03-01T14:36:56;9.30;78.70
15257;DHT22;7731;50.720;6.912;2023-03-01T14:39:39;9.20;99.90
15257;DHT22;7731;50.720;6.912;2023-03-01T14:42:10;9.10;99.90
15257;DHT22;7731;50.720;6.912;2023-03-01T14:44:44;9.30;99.90
15257;DHT22;7731;50.720;6.912;2023-03-01T14:47:25;9.30;85.70
15257;DHT22;7731;50.720;6.912;2023-03-01T14:50:00;9.40;95.50
15257;DHT22;7731;50.720;6.912;2023-03-01T14:52:39;9.40;95.50
15257;DHT22;7731;50.720;6.912;2023-03-01T14:55:16;9.40;83.90
15257;DHT22;7731;50.720;6.912;2023-03-01T14:57:50;9.40;99.90
15257;DHT22;7731;50.720;6.912;2023-03-01T15:00:24;9.40;91.20
15257;DHT22;7731;50.720;6.912;2023-03-01T15:03:00;9.20;86.30
15257;DHT22;7731;50.720;6.912;2023-03-01T15:05:37;9.20;98.60
15257;DHT22;7731;50.720;6.912;2023-03-01T15:08:18;9.20;99.90
15257;DHT22;7731;50.720;6.912;2023-03-01T15:10:59;9.20;97.10
15257;DHT22;7731;50.720;6.912;2023-03-01T15:13:35;9.20;95.60
15257;DHT22;7731;50.720;6.912;2023-03-01T15:16:09;9.10;99.90
15257;DHT22;7731;50.720;6.912;2023-03-01T15:18:45;9.20;99.90
15257;DHT22;7731;50.720;6.912;2023-03-01T15:21:22;9.20;99.90
15257;DHT22;7731;50.720;6.912;2023-03-01T15:24:06;9.20;99.90
15257;DHT22;7731;50.720;6.912;2023-03-01T15:26:52;9.20;99.90
15257;DHT22;7731;50.720;6.912;2023-03-01T15:29:29;9.20;99.90
15257;DHT22;7731;50.720;6.912;2023-03-01T15:32:27;9.30;99.90
15257;DHT22;7731;50.720;6.912;2023-03-01T15:35:31;9.20;99.90
15257;DHT22;7731;50.720;6.912;2023-03-01T15:38:31;9.20;99.90
15257;DHT22;7731;50.720;6.912;2023-03-01T15:41:26;9.00;99.90
15257;DHT22;7731;50.720;6.912;2023-03-01T15:43:58;8.90;99.90
15257;DHT22;7731;50.720;6.912;2023-03-01T15:46:31;8.80;99.90
15257;DHT22;7731;50.720;6.912;2023-03-01T15:51:56;8.70;99.90
15257;DHT22;7731;50.720;6.912;2023-03-01T15:54:28;8.60;99.90
15257;DHT22;7731;50.720;6.912;2023-03-01T15:57:01;8.60;99.90
15257;DHT22;7731;50.720;6.912;2023-03-01T15:59:31;8.70;99.90
15257;DHT22;7731;50.720;6.912;2023-03-01T16:02:02;8.60;99.90
15257;DHT22;7731;50.720;6.912;2023-03-01T16:04:41;8.50;99.90
15257;DHT22;7731;50.720;6.912;2023-03-01T16:07:12;8.40;1.00
15257;DHT22;7731;50.720;6.912;2023-03-01T16:09:42;8.30;1.00
15257;DHT22;7731;50.720;6.912;2023-03-01T16:12:16;8.20;1.00
15257;DHT22;7731;50.720;6.912;2023-03-01T16:14:48;8.20;1.00
15257;DHT22;7731;50.720;6.912;2023-03-01T16:17:19;8.10;1.00
15257;DHT22;7731;50.720;6.912;2023-03-01T16:19:50;8.00;1.00
15257;DHT22;7731;50.720;6.912;2023-03-01T16:22:20;7.90;1.00
15257;DHT22;7731;50.720;6.912;2023-03-01T16:24:52;7.70;18.60
15257;DHT22;7731;50.720;6.912;2023-03-01T16:27:25;7.70;85.90
15257;DHT22;7731;50.720;6.912;2023-03-01T16:29:58;7.70;97.60
15257;DHT22;7731;50.720;6.912;2023-03-01T16:32:28;7.60;99.90
15257;DHT22;7731;50.720;6.912;2023-03-01T16:34:58;7.50;99.90
15257;DHT22;7731;50.720;6.912;2023-03-01T16:37:32;7.40;99.90
15257;DHT22;7731;50.720;6.912;2023-03-01T16:40:05;7.40;99.90
15257;DHT22;7731;50.720;6.912;2023-03-01T16:42:47;7.30;1.00
15257;DHT22;7731;50.720;6.912;2023-03-01T16:45:18;7.20;1.00
15257;DHT22;7731;50.720;6.912;2023-03-01T16:47:51;7.20;1.00
15257;DHT22;7731;50.720;6.912;2023-03-01T16:50:27;7.00;1.00
15257;DHT22;7731;50.720;6.912;2023-03-01T16:52:59;6.90;1.00
15257;DHT22;7731;50.720;6.912;2023-03-01T16:55:29;7.00;1.00
15257;DHT22;7731;50.720;6.912;2023-03-01T16:58:04;6.90;1.00
15257;DHT22;7731;50.720;6.912;2023-03-01T17:00:34;6.80;1.00
15257;DHT22;7731;50.720;6.912;2023-03-01T17:03:04;6.70;1.00
15257;DHT22;7731;50.720;6.912;2023-03-01T17:05:34;6.70;1.00
15257;DHT22;7731;50.720;6.912;2023-03-01T17:08:05;6.70;1.00
15257;DHT22;7731;50.720;6.912;2023-03-01T17:10:35;6.60;99.90
15257;DHT22;7731;50.720;6.912;2023-03-01T17:13:11;6.50;99.90
15257;DHT22;7731;50.720;6.912;2023-03-01T17:15:46;6.40;99.90